sensor_id;sensor_type;location;lat;lon;timestamp;pressure;altitude;pressure_sealevel;temperature;humidity
71976;BME280;68326;52.124;5.424;2023-03-15T00:01:19;101171.69;;;1.78;92.85
71976;BME280;68326;52.124;5.424;2023-03-15T00:03:47;101176.81;;;1.79;92.27
71976;BME280;68326;52.124;5.424;2023-03-15T00:06:14;101189.66;;;1.81;93.70
71976;BME280;68326;52.124;5.424;2023-03-15T00:08:41;101181.94;;;1.81;92.79
71976;BME280;68326;52.124;5.424;2023-03-15T00:11:16;101183.63;;;1.80;93.49
71976;BME280;68326;52.124;5.424;2023-03-15T00:13:44;101187.94;;;1.81;93.38
71976;BME280;68326;52.124;5.424;2023-03-15T00:16:11;101184.47;;;1.84;93.46
71976;BME280;68326;52.124;5.424;2023-03-15T00:18:43;101185.31;;;1.86;93.24
71976;BME280;68326;52.124;5.424;2023-03-15T00:21:10;101178.50;;;1.85;94.19
71976;BME280;68326;52.124;5.424;2023-03-15T00:23:37;101182.75;;;1.88;93.10
71976;BME280;68326;52.124;5.424;2023-03-15T00:26:03;101177.56;;;1.91;93.57
71976;BME280;68326;52.124;5.424;2023-03-15T00:28:30;101176.72;;;1.92;93.27
71976;BME280;68326;52.124;5.424;2023-03-15T00:31:12;101183.53;;;1.93;93.15
71976;BME280;68326;52.124;5.424;2023-03-15T00:33:39;101192.06;;;1.93;94.56
71976;BME280;68326;52.124;5.424;2023-03-15T00:36:08;101195.44;;;2.03;93.66
71976;BME280;68326;52.124;5.424;2023-03-15T00:38:36;101192.00;;;2.04;92.97
71976;BME280;68326;52.124;5.424;2023-03-15T00:41:07;101192.84;;;2.04;93.78
71976;BME280;68326;52.124;5.424;2023-03-15T00:43:35;101192.06;;;1.98;92.79
71976;BME280;68326;52.124;5.424;2023-03-15T00:46:02;101186.03;;;2.02;93.40
71976;BME280;68326;52.124;5.424;2023-03-15T00:48:30;101194.59;;;2.01;92.54
71976;BME280;68326;52.124;5.424;2023-03-15T00:51:07;101201.44;;;2.02;92.39
71976;BME280;68326;52.124;5.424;2023-03-15T00:53:35;101199.72;;;2.01;93.09
71976;BME280;68326;52.124;5.424;2023-03-15T00:56:07;101204.84;;;2.01;93.09
71976;BME280;68326;52.124;5.424;2023-03-15T00:58:36;101204.84;;;2.02;93.23
71976;BME280;68326;52.124;5.424;2023-03-15T01:01:17;101204.84;;;2.04;93.07
71976;BME280;68326;52.124;5.424;2023-03-15T01:03:44;101206.56;;;2.00;92.29
71976;BME280;68326;52.124;5.424;2023-03-15T01:06:13;101210.84;;;2.01;92.81
71976;BME280;68326;52.124;5.424;2023-03-15T01:08:40;101213.44;;;2.00;92.26
71976;BME280;68326;52.124;5.424;2023-03-15T01:11:15;101225.44;;;1.98;92.57
71976;BME280;68326;52.124;5.424;2023-03-15T01:13:42;101241.72;;;1.94;92.62
71976;BME280;68326;52.124;5.424;2023-03-15T01:16:11;101233.13;;;1.96;93.02
71976;BME280;68326;52.124;5.424;2023-03-15T01:18:38;101233.94;;;2.03;93.12
71976;BME280;68326;52.124;5.424;2023-03-15T01:21:06;101231.31;;;2.08;93.23
71976;BME280;68326;52.124;5.424;2023-03-15T01:23:33;101229.63;;;2.07;93.02
71976;BME280;68326;52.124;5.424;2023-03-15T01:26:03;101241.56;;;2.11;93.53
71976;BME280;68326;52.124;5.424;2023-03-15T01:28:31;101239.00;;;2.11;93.59
71976;BME280;68326;52.124;5.424;2023-03-15T01:30:57;101240.69;;;2.15;93.81
71976;BME280;68326;52.124;5.424;2023-03-15T01:33:25;101236.38;;;2.15;94.30
71976;BME280;68326;52.124;5.424;2023-03-15T01:36:00;101243.19;;;2.19;93.54
71976;BME280;68326;52.124;5.424;2023-03-15T01:38:27;101251.78;;;2.15;93.65
71976;BME280;68326;52.124;5.424;2023-03-15T01:40:54;101249.22;;;2.12;93.44
71976;BME280;68326;52.124;5.424;2023-03-15T01:43:22;101249.22;;;2.14;93.54
71976;BME280;68326;52.124;5.424;2023-03-15T01:48:38;101258.63;;;2.16;93.75
71976;BME280;68326;52.124;5.424;2023-03-15T01:51:12;101262.84;;;2.19;93.74
71976;BME280;68326;52.124;5.424;2023-03-15T01:53:44;101262.06;;;2.15;93.80
71976;BME280;68326;52.124;5.424;2023-03-15T01:56:14;101265.53;;;2.10;93.99
71976;BME280;68326;52.124;5.424;2023-03-15T01:58:42;101271.53;;;2.09;94.07
71976;BME280;68326;52.124;5.424;2023-03-15T02:01:10;101266.44;;;2.04;94.19
71976;BME280;68326;52.124;5.424;2023-03-15T02:03:40;101270.75;;;2.00;93.15
71976;BME280;68326;52.124;5.424;2023-03-15T02:06:16;101266.50;;;1.98;94.33
71976;BME280;68326;52.124;5.424;2023-03-15T02:08:49;101269.03;;;1.99;93.68
71976;BME280;68326;52.124;5.424;2023-03-15T02:11:19;101272.41;;;2.03;94.15
71976;BME280;68326;52.124;5.424;2023-03-15T02:13:47;101272.38;;;2.06;94.08
71976;BME280;68326;52.124;5.424;2023-03-15T02:16:15;101271.53;;;2.07;94.69
71976;BME280;68326;52.124;5.424;2023-03-15T02:18:43;101274.16;;;2.04;93.88
71976;BME280;68326;52.124;5.424;2023-03-15T02:23:43;101284.41;;;2.02;93.82
71976;BME280;68326;52.124;5.424;2023-03-15T02:26:21;101286.13;;;2.02;94.49
71976;BME280;68326;52.124;5.424;2023-03-15T02:28:51;101287.03;;;1.95;93.82
71976;BME280;68326;52.124;5.424;2023-03-15T02:31:20;101293.84;;;1.99;94.70
71976;BME280;68326;52.124;5.424;2023-03-15T02:33:51;101296.41;;;2.02;94.29
71976;BME280;68326;52.124;5.424;2023-03-15T02:36:23;101298.09;;;2.01;94.17
71976;BME280;68326;52.124;5.424;2023-03-15T02:38:51;101295.59;;;1.92;94.24
71976;BME280;68326;52.124;5.424;2023-03-15T02:41:36;101309.31;;;1.88;93.87
71976;BME280;68326;52.124;5.424;2023-03-15T02:44:13;101315.31;;;1.89;94.36
71976;BME280;68326;52.124;5.424;2023-03-15T02:46:43;101317.88;;;1.89;94.44
71976;BME280;68326;52.124;5.424;2023-03-15T02:49:11;101319.53;;;1.93;94.29
71976;BME280;68326;52.124;5.424;2023-03-15T02:51:38;101315.22;;;1.99;94.20
71976;BME280;68326;52.124;5.424;2023-03-15T02:54:05;101326.38;;;1.97;93.78
71976;BME280;68326;52.124;5.424;2023-03-15T02:56:31;101336.63;;;1.95;93.66
71976;BME280;68326;52.124;5.424;2023-03-15T02:58:59;101335.75;;;2.01;94.59
71976;BME280;68326;52.124;5.424;2023-03-15T03:01:26;101340.00;;;2.03;94.74
71976;BME280;68326;52.124;5.424;2023-03-15T03:03:52;101337.47;;;2.02;93.51
71976;BME280;68326;52.124;5.424;2023-03-15T03:06:19;101348.63;;;1.95;93.77
71976;BME280;68326;52.124;5.424;2023-03-15T03:08:46;101357.16;;;1.97;94.91
71976;BME280;68326;52.124;5.424;2023-03-15T03:11:14;101358.00;;;1.99;94.38
71976;BME280;68326;52.124;5.424;2023-03-15T03:13:41;101364.03;;;1.93;94.02
71976;BME280;68326;52.124;5.424;2023-03-15T03:16:08;101370.03;;;1.92;93.83
71976;BME280;68326;52.124;5.424;2023-03-15T03:18:34;101376.00;;;1.96;94.62
71976;BME280;68326;52.124;5.424;2023-03-15T03:21:06;101373.41;;;1.97;93.55
71976;BME280;68326;52.124;5.424;2023-03-15T03:23:34;101387.13;;;1.96;93.91
71976;BME280;68326;52.124;5.424;2023-03-15T03:26:02;101386.28;;;1.96;93.83
71976;BME280;68326;52.124;5.424;2023-03-15T03:28:30;101388.00;;;1.91;93.28
71976;BME280;68326;52.124;5.424;2023-03-15T03:30:58;101389.75;;;1.87;93.46
71976;BME280;68326;52.124;5.424;2023-03-15T03:33:25;101390.59;;;1.84;94.15
71976;BME280;68326;52.124;5.424;2023-03-15T03:35:51;101394.00;;;1.87;93.94
71976;BME280;68326;52.124;5.424;2023-03-15T03:38:19;101394.88;;;1.86;94.35
71976;BME280;68326;52.124;5.424;2023-03-15T03:40:45;101404.28;;;1.82;94.30
71976;BME280;68326;52.124;5.424;2023-03-15T03:43:12;101407.72;;;1.84;94.20
71976;BME280;68326;52.124;5.424;2023-03-15T03:45:38;101406.84;;;1.88;93.94
71976;BME280;68326;52.124;5.424;2023-03-15T03:48:05;101415.38;;;1.90;94.81
71976;BME280;68326;52.124;5.424;2023-03-15T03:50:31;101424.78;;;1.88;93.89
71976;BME280;68326;52.124;5.424;2023-03-15T03:52:58;101425.63;;;1.89;93.68
71976;BME280;68326;52.124;5.424;2023-03-15T03:55:24;101428.22;;;1.84;93.66
71976;BME280;68326;52.124;5.424;2023-03-15T03:57:51;101431.66;;;1.84;94.58
71976;BME280;68326;52.124;5.424;2023-03-15T04:00:19;101426.53;;;1.80;93.74
71976;BME280;68326;52.124;5.424;2023-03-15T04:02:46;101430.84;;;1.73;93.68
71976;BME280;68326;52.124;5.424;2023-03-15T04:05:12;101437.72;;;1.68;94.47
71976;BME280;68326;52.124;5.424;2023-03-15T04:07:39;101444.56;;;1.72;94.22
71976;BME280;68326;52.124;5.424;2023-03-15T04:10:07;101448.81;;;1.75;94.80
71976;BME280;68326;52.124;5.424;2023-03-15T04:12:33;101445.41;;;1.73;93.98
71976;BME280;68326;52.124;5.424;2023-03-15T04:15:00;101445.41;;;1.73;94.54
71976;BME280;68326;52.124;5.424;2023-03-15T04:17:26;101460.78;;;1.74;93.75
71976;BME280;68326;52.124;5.424;2023-03-15T04:19:53;101463.34;;;1.76;94.50
71976;BME280;68326;52.124;5.424;2023-03-15T04:22:19;101466.78;;;1.73;93.76
71976;BME280;68326;52.124;5.424;2023-03-15T04:24:46;101457.38;;;1.71;94.09
71976;BME280;68326;52.124;5.424;2023-03-15T04:27:15;101470.22;;;1.72;94.33
71976;BME280;68326;52.124;5.424;2023-03-15T04:29:42;101471.03;;;1.76;94.00
71976;BME280;68326;52.124;5.424;2023-03-15T04:32:09;101471.91;;;1.73;94.12
71976;BME280;68326;52.124;5.424;2023-03-15T04:34:36;101480.47;;;1.69;93.60
71976;BME280;68326;52.124;5.424;2023-03-15T04:37:05;101494.16;;;1.68;93.95
71976;BME280;68326;52.124;5.424;2023-03-15T04:39:31;101484.72;;;1.73;94.24
71976;BME280;68326;52.124;5.424;2023-03-15T04:41:58;101485.59;;;1.71;93.98
71976;BME280;68326;52.124;5.424;2023-03-15T04:44:24;101499.28;;;1.71;94.02
71976;BME280;68326;52.124;5.424;2023-03-15T04:46:55;101495.84;;;1.69;93.86
71976;BME280;68326;52.124;5.424;2023-03-15T04:49:23;101498.41;;;1.68;94.53
71976;BME280;68326;52.124;5.424;2023-03-15T04:51:49;101503.56;;;1.68;94.11
71976;BME280;68326;52.124;5.424;2023-03-15T04:54:16;101500.97;;;1.69;94.40
71976;BME280;68326;52.124;5.424;2023-03-15T04:56:42;101503.56;;;1.68;93.88
71976;BME280;68326;52.124;5.424;2023-03-15T04:59:09;101515.53;;;1.62;93.50
71976;BME280;68326;52.124;5.424;2023-03-15T05:01:36;101511.28;;;1.58;93.96
71976;BME280;68326;52.124;5.424;2023-03-15T05:04:03;101512.13;;;1.59;94.51
71976;BME280;68326;52.124;5.424;2023-03-15T05:06:29;101517.28;;;1.57;94.53
71976;BME280;68326;52.124;5.424;2023-03-15T05:08:56;101524.97;;;1.57;94.23
71976;BME280;68326;52.124;5.424;2023-03-15T05:11:22;101525.81;;;1.58;95.21
71976;BME280;68326;52.124;5.424;2023-03-15T05:13:49;101524.97;;;1.62;94.84
71976;BME280;68326;52.124;5.424;2023-03-15T05:16:15;101536.91;;;1.63;95.21
71976;BME280;68326;52.124;5.424;2023-03-15T05:18:42;101544.63;;;1.66;94.40
71976;BME280;68326;52.124;5.424;2023-03-15T05:21:11;101542.91;;;1.65;94.70
71976;BME280;68326;52.124;5.424;2023-03-15T05:23:38;101548.88;;;1.62;94.45
71976;BME280;68326;52.124;5.424;2023-03-15T05:26:04;101552.31;;;1.60;94.17
71976;BME280;68326;52.124;5.424;2023-03-15T05:28:31;101560.00;;;1.65;94.82
71976;BME280;68326;52.124;5.424;2023-03-15T05:30:57;101563.44;;;1.68;95.13
71976;BME280;68326;52.124;5.424;2023-03-15T05:33:26;101573.69;;;1.67;94.40
71976;BME280;68326;52.124;5.424;2023-03-15T05:35:52;101571.13;;;1.67;94.45
71976;BME280;68326;52.124;5.424;2023-03-15T05:38:21;101573.69;;;1.68;95.07
71976;BME280;68326;52.124;5.424;2023-03-15T05:40:52;101566.81;;;1.72;94.47
71976;BME280;68326;52.124;5.424;2023-03-15T05:43:19;101570.25;;;1.75;94.19
71976;BME280;68326;52.124;5.424;2023-03-15T05:45:46;101573.66;;;1.79;94.10
71976;BME280;68326;52.124;5.424;2023-03-15T05:48:14;101583.91;;;1.76;93.58
71976;BME280;68326;52.124;5.424;2023-03-15T05:50:41;101578.78;;;1.80;95.12
71976;BME280;68326;52.124;5.424;2023-03-15T05:53:08;101588.19;;;1.86;93.81
71976;BME280;68326;52.124;5.424;2023-03-15T05:55:35;101583.91;;;1.87;94.09
71976;BME280;68326;52.124;5.424;2023-03-15T05:58:02;101585.63;;;1.83;93.10
71976;BME280;68326;52.124;5.424;2023-03-15T06:00:29;101601.88;;;1.82;94.55
71976;BME280;68326;52.124;5.424;2023-03-15T06:02:55;101603.59;;;1.83;94.72
71976;BME280;68326;52.124;5.424;2023-03-15T06:05:22;101617.28;;;1.83;94.43
71976;BME280;68326;52.124;5.424;2023-03-15T06:07:48;101624.97;;;1.82;94.01
71976;BME280;68326;52.124;5.424;2023-03-15T06:10:15;101630.09;;;1.83;93.70
71976;BME280;68326;52.124;5.424;2023-03-15T06:12:41;101631.81;;;1.86;94.71
71976;BME280;68326;52.124;5.424;2023-03-15T06:15:10;101635.22;;;1.87;93.36
71976;BME280;68326;52.124;5.424;2023-03-15T06:17:37;101636.09;;;1.86;94.14
71976;BME280;68326;52.124;5.424;2023-03-15T06:20:03;101638.66;;;1.87;93.94
71976;BME280;68326;52.124;5.424;2023-03-15T06:22:30;101642.94;;;1.85;93.47
71976;BME280;68326;52.124;5.424;2023-03-15T06:24:56;101645.50;;;1.85;93.92
71976;BME280;68326;52.124;5.424;2023-03-15T06:27:23;101643.78;;;1.87;93.77
71976;BME280;68326;52.124;5.424;2023-03-15T06:29:49;101649.75;;;1.95;93.96
71976;BME280;68326;52.124;5.424;2023-03-15T06:32:16;101650.63;;;2.02;94.20
71976;BME280;68326;52.124;5.424;2023-03-15T06:34:42;101668.53;;;2.08;93.58
71976;BME280;68326;52.124;5.424;2023-03-15T06:37:09;101667.69;;;2.11;93.46
71976;BME280;68326;52.124;5.424;2023-03-15T06:39:43;101673.69;;;2.11;93.00
71976;BME280;68326;52.124;5.424;2023-03-15T06:42:10;101681.41;;;2.07;93.01
71976;BME280;68326;52.124;5.424;2023-03-15T06:44:39;101680.53;;;1.97;92.91
71976;BME280;68326;52.124;5.424;2023-03-15T06:47:07;101682.28;;;1.92;92.92
71976;BME280;68326;52.124;5.424;2023-03-15T06:49:34;101691.66;;;1.91;93.35
71976;BME280;68326;52.124;5.424;2023-03-15T06:52:01;101700.25;;;1.98;93.86
71976;BME280;68326;52.124;5.424;2023-03-15T06:54:27;101701.91;;;2.10;93.95
71976;BME280;68326;52.124;5.424;2023-03-15T06:56:54;101705.34;;;2.18;93.46
71976;BME280;68326;52.124;5.424;2023-03-15T06:59:21;101707.91;;;2.26;93.54
71976;BME280;68326;52.124;5.424;2023-03-15T07:01:48;101707.00;;;2.31;93.77
71976;BME280;68326;52.124;5.424;2023-03-15T07:04:14;101712.13;;;2.39;94.13
71976;BME280;68326;52.124;5.424;2023-03-15T07:06:41;101710.38;;;2.49;94.57
71976;BME280;68326;52.124;5.424;2023-03-15T07:09:08;101709.50;;;2.60;95.04
71976;BME280;68326;52.124;5.424;2023-03-15T07:11:34;101724.00;;;2.75;94.09
71976;BME280;68326;52.124;5.424;2023-03-15T07:14:01;101737.66;;;2.90;94.39
71976;BME280;68326;52.124;5.424;2023-03-15T07:16:27;101731.63;;;3.00;94.53
71976;BME280;68326;52.124;5.424;2023-03-15T07:18:53;101733.31;;;3.09;93.27
71976;BME280;68326;52.124;5.424;2023-03-15T07:21:21;101730.66;;;3.18;93.91
71976;BME280;68326;52.124;5.424;2023-03-15T07:23:48;101732.34;;;3.28;92.96
71976;BME280;68326;52.124;5.424;2023-03-15T07:26:14;101739.13;;;3.38;93.44
71976;BME280;68326;52.124;5.424;2023-03-15T07:28:41;101737.31;;;3.57;92.66
71976;BME280;68326;52.124;5.424;2023-03-15T07:31:10;101743.09;;;3.85;91.65
71976;BME280;68326;52.124;5.424;2023-03-15T07:33:37;101740.38;;;3.99;88.38
71976;BME280;68326;52.124;5.424;2023-03-15T07:36:05;101748.19;;;3.92;87.42
71976;BME280;68326;52.124;5.424;2023-03-15T07:38:33;101748.19;;;3.92;87.48
71976;BME280;68326;52.124;5.424;2023-03-15T07:41:04;101753.94;;;4.21;88.63
71976;BME280;68326;52.124;5.424;2023-03-15T07:43:31;101757.94;;;4.50;87.61
71976;BME280;68326;52.124;5.424;2023-03-15T07:45:58;101764.78;;;4.54;85.03
71976;BME280;68326;52.124;5.424;2023-03-15T07:48:25;101769.06;;;4.55;85.56
71976;BME280;68326;52.124;5.424;2023-03-15T07:50:51;101773.28;;;4.65;86.54
71976;BME280;68326;52.124;5.424;2023-03-15T07:53:18;101774.06;;;4.70;85.84
71976;BME280;68326;52.124;5.424;2023-03-15T07:55:46;101768.91;;;4.69;85.48
71976;BME280;68326;52.124;5.424;2023-03-15T07:58:13;101779.22;;;4.69;84.25
71976;BME280;68326;52.124;5.424;2023-03-15T08:00:40;101782.44;;;4.88;84.92
71976;BME280;68326;52.124;5.424;2023-03-15T08:03:06;101783.78;;;5.18;82.57
71976;BME280;68326;52.124;5.424;2023-03-15T08:05:34;101777.34;;;5.50;83.28
71976;BME280;68326;52.124;5.424;2023-03-15T08:08:00;101784.78;;;5.71;80.14
71976;BME280;68326;52.124;5.424;2023-03-15T08:10:27;101789.91;;;5.75;78.64
71976;BME280;68326;52.124;5.424;2023-03-15T08:12:54;101803.06;;;5.58;77.18
71976;BME280;68326;52.124;5.424;2023-03-15T08:15:20;101807.63;;;5.40;77.71
71976;BME280;68326;52.124;5.424;2023-03-15T08:17:47;101813.53;;;5.48;78.49
71976;BME280;68326;52.124;5.424;2023-03-15T08:20:14;101807.25;;;5.66;80.05
71976;BME280;68326;52.124;5.424;2023-03-15T08:22:47;101809.72;;;5.74;77.79
71976;BME280;68326;52.124;5.424;2023-03-15T08:25:16;101804.72;;;5.63;76.82
71976;BME280;68326;52.124;5.424;2023-03-15T08:27:43;101811.72;;;5.55;77.47
71976;BME280;68326;52.124;5.424;2023-03-15T08:30:12;101815.22;;;5.49;78.35
71976;BME280;68326;52.124;5.424;2023-03-15T08:32:41;101823.06;;;5.42;77.49
71976;BME280;68326;52.124;5.424;2023-03-15T08:35:09;101823.03;;;5.43;79.00
71976;BME280;68326;52.124;5.424;2023-03-15T08:37:41;101826.91;;;5.75;79.96
71976;BME280;68326;52.124;5.424;2023-03-15T08:40:08;101826.25;;;5.61;78.13
71976;BME280;68326;52.124;5.424;2023-03-15T08:42:37;101826.97;;;5.70;78.63
71976;BME280;68326;52.124;5.424;2023-03-15T08:45:05;101841.28;;;5.95;78.58
71976;BME280;68326;52.124;5.424;2023-03-15T08:47:33;101841.75;;;6.23;77.55
71976;BME280;68326;52.124;5.424;2023-03-15T08:50:21;101843.88;;;6.49;77.30
71976;BME280;68326;52.124;5.424;2023-03-15T08:52:47;101843.78;;;6.55;75.99
71976;BME280;68326;52.124;5.424;2023-03-15T08:55:14;101849.69;;;6.62;76.28
71976;BME280;68326;52.124;5.424;2023-03-15T08:57:41;101848.66;;;6.70;76.14
71976;BME280;68326;52.124;5.424;2023-03-15T09:00:08;101847.81;;;6.70;76.27
71976;BME280;68326;52.124;5.424;2023-03-15T09:02:36;101843.59;;;6.64;75.58
71976;BME280;68326;52.124;5.424;2023-03-15T09:05:03;101845.16;;;6.73;74.89
71976;BME280;68326;52.124;5.424;2023-03-15T09:07:32;101851.34;;;6.64;73.60
71976;BME280;68326;52.124;5.424;2023-03-15T09:09:59;101856.72;;;7.02;74.97
71976;BME280;68326;52.124;5.424;2023-03-15T09:12:25;101852.22;;;7.52;74.24
71976;BME280;68326;52.124;5.424;2023-03-15T09:14:53;101854.97;;;7.86;70.74
71976;BME280;68326;52.124;5.424;2023-03-15T09:17:19;101853.94;;;8.29;71.11
71976;BME280;68326;52.124;5.424;2023-03-15T09:19:46;101856.09;;;8.48;68.62
71976;BME280;68326;52.124;5.424;2023-03-15T09:22:13;101844.66;;;8.88;66.85
71976;BME280;68326;52.124;5.424;2023-03-15T09:24:49;101842.81;;;8.93;66.18
71976;BME280;68326;52.124;5.424;2023-03-15T09:27:17;101842.75;;;8.63;63.29
71976;BME280;68326;52.124;5.424;2023-03-15T09:29:44;101845.47;;;8.59;63.54
71976;BME280;68326;52.124;5.424;2023-03-15T09:32:10;101844.53;;;8.61;62.19
71976;BME280;68326;52.124;5.424;2023-03-15T09:34:37;101848.88;;;8.92;65.59
71976;BME280;68326;52.124;5.424;2023-03-15T09:37:07;101852.84;;;9.35;62.45
71976;BME280;68326;52.124;5.424;2023-03-15T09:39:34;101853.13;;;9.26;61.93
71976;BME280;68326;52.124;5.424;2023-03-15T09:42:00;101848.75;;;9.28;58.93
71976;BME280;68326;52.124;5.424;2023-03-15T09:44:38;101850.50;;;9.57;61.99
71976;BME280;68326;52.124;5.424;2023-03-15T09:47:19;101853.31;;;9.77;60.24
71976;BME280;68326;52.124;5.424;2023-03-15T09:49:54;101858.16;;;9.32;61.25
71976;BME280;68326;52.124;5.424;2023-03-15T09:53:37;101859.66;;;9.39;60.60
71976;BME280;68326;52.124;5.424;2023-03-15T09:55:30;101859.56;;;9.44;55.74
71976;BME280;68326;52.124;5.424;2023-03-15T09:57:59;101861.06;;;9.21;57.62
71976;BME280;68326;52.124;5.424;2023-03-15T10:00:43;101869.25;;;9.37;57.89
71976;BME280;68326;52.124;5.424;2023-03-15T10:03:18;101863.69;;;9.49;62.52
71976;BME280;68326;52.124;5.424;2023-03-15T10:05:51;101861.69;;;9.87;56.83
71976;BME280;68326;52.124;5.424;2023-03-15T10:08:19;101853.88;;;9.61;56.58
71976;BME280;68326;52.124;5.424;2023-03-15T10:10:51;101856.09;;;9.43;58.60
71976;BME280;68326;52.124;5.424;2023-03-15T10:13:50;101851.22;;;9.90;58.57
71976;BME280;68326;52.124;5.424;2023-03-15T10:16:39;101853.53;;;9.99;53.69
71976;BME280;68326;52.124;5.424;2023-03-15T10:22:01;101849.88;;;9.77;54.17
71976;BME280;68326;52.124;5.424;2023-03-15T10:24:34;101851.31;;;9.87;50.43
71976;BME280;68326;52.124;5.424;2023-03-15T10:27:27;101840.31;;;9.77;51.90
71976;BME280;68326;52.124;5.424;2023-03-15T10:29:57;101843.34;;;9.92;51.40
71976;BME280;68326;52.124;5.424;2023-03-15T10:32:27;101851.06;;;9.95;53.79
71976;BME280;68326;52.124;5.424;2023-03-15T10:34:57;101848.75;;;10.14;51.98
71976;BME280;68326;52.124;5.424;2023-03-15T10:37:24;101847.19;;;10.08;48.71
71976;BME280;68326;52.124;5.424;2023-03-15T10:39:56;101852.38;;;10.08;51.15
71976;BME280;68326;52.124;5.424;2023-03-15T10:44:54;101866.75;;;9.92;50.66
71976;BME280;68326;52.124;5.424;2023-03-15T10:47:21;101864.25;;;9.61;51.70
71976;BME280;68326;52.124;5.424;2023-03-15T10:49:58;101879.41;;;9.46;53.02
71976;BME280;68326;52.124;5.424;2023-03-15T10:52:32;101877.50;;;9.51;53.01
71976;BME280;68326;52.124;5.424;2023-03-15T10:57:40;101883.00;;;9.98;51.83
71976;BME280;68326;52.124;5.424;2023-03-15T11:00:21;101887.78;;;10.40;48.99
71976;BME280;68326;52.124;5.424;2023-03-15T11:03:00;101891.16;;;10.69;50.98
71976;BME280;68326;52.124;5.424;2023-03-15T11:05:38;101895.63;;;10.66;46.57
71976;BME280;68326;52.124;5.424;2023-03-15T11:08:11;101893.25;;;10.33;48.03
71976;BME280;68326;52.124;5.424;2023-03-15T11:10:38;101897.19;;;10.16;43.61
71976;BME280;68326;52.124;5.424;2023-03-15T11:15:47;101913.00;;;10.38;49.34
71976;BME280;68326;52.124;5.424;2023-03-15T11:18:20;101911.53;;;10.30;47.17
71976;BME280;68326;52.124;5.424;2023-03-15T11:20:51;101911.34;;;10.08;50.34
71976;BME280;68326;52.124;5.424;2023-03-15T11:23:27;101919.84;;;10.13;46.19
71976;BME280;68326;52.124;5.424;2023-03-15T11:25:54;101917.13;;;10.46;47.85
71976;BME280;68326;52.124;5.424;2023-03-15T11:28:30;101920.44;;;10.49;46.15
71976;BME280;68326;52.124;5.424;2023-03-15T11:30:57;101914.22;;;10.27;47.67
71976;BME280;68326;52.124;5.424;2023-03-15T11:33:47;101913.00;;;10.65;47.80
71976;BME280;68326;52.124;5.424;2023-03-15T11:36:19;101912.81;;;10.71;47.19
71976;BME280;68326;52.124;5.424;2023-03-15T11:38:47;101916.25;;;10.97;47.31
71976;BME280;68326;52.124;5.424;2023-03-15T11:41:28;101909.03;;;11.05;47.50
71976;BME280;68326;52.124;5.424;2023-03-15T11:44:12;101910.06;;;10.74;48.58
71976;BME280;68326;52.124;5.424;2023-03-15T11:46:45;101899.72;;;10.73;48.26
71976;BME280;68326;52.124;5.424;2023-03-15T11:49:22;101906.97;;;11.13;48.94
71976;BME280;68326;52.124;5.424;2023-03-15T11:51:55;101896.25;;;11.46;44.86
71976;BME280;68326;52.124;5.424;2023-03-15T11:54:24;101892.59;;;11.74;44.71
71976;BME280;68326;52.124;5.424;2023-03-15T11:56:55;101901.28;;;11.51;44.92
71976;BME280;68326;52.124;5.424;2023-03-15T11:59:36;101895.69;;;10.89;43.92
71976;BME280;68326;52.124;5.424;2023-03-15T12:04:56;101895.13;;;11.05;46.96
71976;BME280;68326;52.124;5.424;2023-03-15T12:07:35;101898.19;;;10.92;43.88
71976;BME280;68326;52.124;5.424;2023-03-15T12:17:53;101901.88;;;10.60;45.14
71976;BME280;68326;52.124;5.424;2023-03-15T12:20:38;101903.69;;;10.83;45.71
71976;BME280;68326;52.124;5.424;2023-03-15T12:28:27;101912.94;;;11.17;43.83
71976;BME280;68326;52.124;5.424;2023-03-15T12:30:57;101905.69;;;11.01;40.40
71976;BME280;68326;52.124;5.424;2023-03-15T12:33:25;101904.38;;;11.13;42.74
71976;BME280;68326;52.124;5.424;2023-03-15T12:36:02;101900.75;;;11.17;41.68
71976;BME280;68326;52.124;5.424;2023-03-15T12:38:38;101902.47;;;11.18;42.56
71976;BME280;68326;52.124;5.424;2023-03-15T12:41:34;101901.91;;;10.85;41.07
71976;BME280;68326;52.124;5.424;2023-03-15T12:47:17;101900.81;;;10.92;41.91
71976;BME280;68326;52.124;5.424;2023-03-15T12:49:44;101902.53;;;11.17;41.53
71976;BME280;68326;52.124;5.424;2023-03-15T12:57:29;101900.72;;;10.69;42.34
71976;BME280;68326;52.124;5.424;2023-03-15T13:00:04;101901.13;;;10.81;42.83
71976;BME280;68326;52.124;5.424;2023-03-15T13:02:43;101906.84;;;10.93;41.67
71976;BME280;68326;52.124;5.424;2023-03-15T13:05:23;101907.91;;;11.12;41.35
71976;BME280;68326;52.124;5.424;2023-03-15T13:08:15;101899.94;;;10.92;43.05
71976;BME280;68326;52.124;5.424;2023-03-15T13:11:02;101893.72;;;10.96;43.34
71976;BME280;68326;52.124;5.424;2023-03-15T13:16:35;101894.84;;;10.89;42.28
71976;BME280;68326;52.124;5.424;2023-03-15T13:19:15;101905.56;;;10.79;41.81
71976;BME280;68326;52.124;5.424;2023-03-15T13:27:18;101890.47;;;10.89;42.50
71976;BME280;68326;52.124;5.424;2023-03-15T13:29:49;101894.41;;;10.76;43.29
71976;BME280;68326;52.124;5.424;2023-03-15T13:32:18;101890.25;;;10.70;42.28
71976;BME280;68326;52.124;5.424;2023-03-15T13:34:46;101901.69;;;10.91;42.68
71976;BME280;68326;52.124;5.424;2023-03-15T13:37:20;101897.50;;;10.87;42.20
71976;BME280;68326;52.124;5.424;2023-03-15T13:39:53;101898.19;;;10.92;44.53
71976;BME280;68326;52.124;5.424;2023-03-15T13:42:22;101906.69;;;10.97;44.21
71976;BME280;68326;52.124;5.424;2023-03-15T13:47:32;101911.91;;;10.46;41.97
71976;BME280;68326;52.124;5.424;2023-03-15T13:50:02;101913.75;;;10.42;41.53
71976;BME280;68326;52.124;5.424;2023-03-15T13:52:29;101908.16;;;10.26;42.11
71976;BME280;68326;52.124;5.424;2023-03-15T13:54:56;101914.56;;;10.16;44.33
71976;BME280;68326;52.124;5.424;2023-03-15T13:57:23;101910.13;;;10.48;44.56
71976;BME280;68326;52.124;5.424;2023-03-15T14:00:05;101910.75;;;10.54;43.48
71976;BME280;68326;52.124;5.424;2023-03-15T14:02:44;101909.94;;;10.24;44.24